Time;durP1;ratioP1;P1;durP2;ratioP2;P2;SDS_P1;SDS_P2;PMS_P1;PMS_P2;Temp;Humidity;BMP_temperature;BMP_pressure;BME280_temperature;BME280_humidity;BME280_pressure;Samples;Min_cycle;Max_cycle;Signal;HPM_P1;HPM_P2
2022/03/10 00:02:25;;;;;;;19.25;12.60;;;1.00;99.90;;;;;;5030865;28;20093;-65
2022/03/10 00:04:51;;;;;;;21.23;12.75;;;1.00;99.90;;;;;;5031933;28;20560;-65
2022/03/10 00:07:16;;;;;;;18.65;12.55;;;1.10;99.90;;;;;;5030937;28;20057;-63
2022/03/10 00:09:42;;;;;;;21.10;13.73;;;1.10;99.90;;;;;;5031381;28;20049;-65
2022/03/10 00:12:07;;;;;;;17.27;11.82;;;1.10;99.90;;;;;;5031186;28;20057;-63
2022/03/10 00:14:33;;;;;;;16.55;11.60;;;1.10;99.90;;;;;;5031686;28;20080;-63
2022/03/10 00:17:00;;;;;;;19.17;11.25;;;1.10;99.90;;;;;;5047830;28;20106;-66
2022/03/10 00:19:25;;;;;;;18.60;11.55;;;1.10;99.90;;;;;;5029668;28;20060;-64
2022/03/10 00:21:51;;;;;;;17.85;11.77;;;1.10;99.90;;;;;;5011289;28;20050;-64
2022/03/10 00:24:20;;;;;;;18.50;12.18;;;1.00;99.90;;;;;;5012381;28;20054;-63
2022/03/10 00:26:46;;;;;;;19.02;12.15;;;1.10;99.90;;;;;;5010875;28;20121;-64
2022/03/10 00:29:11;;;;;;;17.48;12.20;;;1.00;99.90;;;;;;5013054;28;20089;-66
2022/03/10 00:31:37;;;;;;;17.45;11.85;;;1.00;99.90;;;;;;5011696;28;20050;-63
2022/03/10 00:34:03;;;;;;;18.25;12.65;;;1.00;99.90;;;;;;5020168;28;20053;-64
2022/03/10 00:36:29;;;;;;;17.33;12.20;;;1.10;99.90;;;;;;5011706;28;20061;-63
2022/03/10 00:38:54;;;;;;;22.08;12.43;;;1.10;99.90;;;;;;5011741;28;20089;-64
2022/03/10 00:41:20;;;;;;;17.67;11.82;;;1.10;99.90;;;;;;5010914;28;20474;-65
2022/03/10 00:43:46;;;;;;;21.70;13.60;;;1.00;99.90;;;;;;5011456;28;20423;-65
2022/03/10 00:46:11;;;;;;;19.75;13.07;;;0.90;99.90;;;;;;5011415;28;20050;-62
2022/03/10 00:48:37;;;;;;;20.85;13.57;;;0.90;99.90;;;;;;5015614;28;20124;-64
2022/03/10 00:51:04;;;;;;;22.98;13.02;;;0.90;99.90;;;;;;5039197;28;20136;-63
2022/03/10 00:53:30;;;;;;;19.52;13.02;;;0.90;99.90;;;;;;5014427;28;20046;-64
2022/03/10 00:55:55;;;;;;;17.67;11.65;;;1.90;99.90;;;;;;5046703;28;20115;-66
2022/03/10 00:58:21;;;;;;;21.30;12.07;;;0.90;99.90;;;;;;5034153;28;20056;-64
2022/03/10 01:00:47;;;;;;;21.77;12.23;;;0.90;99.90;;;;;;5032567;28;20513;-63
2022/03/10 01:03:12;;;;;;;17.35;12.23;;;0.90;99.90;;;;;;5023336;28;20465;-64
2022/03/10 01:05:38;;;;;;;22.13;13.00;;;0.80;99.90;;;;;;5011545;28;20054;-64
2022/03/10 01:08:04;;;;;;;20.98;13.32;;;0.70;99.90;;;;;;5011317;28;20111;-65
2022/03/10 01:10:29;;;;;;;18.02;12.63;;;0.80;99.90;;;;;;5014516;28;20148;-64
2022/03/10 01:12:55;;;;;;;19.20;12.60;;;0.80;99.90;;;;;;5047165;28;20602;-64
2022/03/10 01:15:24;;;;;;;18.30;12.95;;;0.80;99.90;;;;;;5022949;28;20085;-63
2022/03/10 01:17:50;;;;;;;17.23;12.98;;;0.80;99.90;;;;;;5011851;28;20095;-64
2022/03/10 01:20:17;;;;;;;19.02;12.40;;;0.80;99.90;;;;;;5014485;28;20054;-64
2022/03/10 01:22:43;;;;;;;17.67;12.98;;;0.70;99.90;;;;;;5014547;28;20045;-64
2022/03/10 01:25:09;;;;;;;19.77;13.05;;;0.70;99.90;;;;;;5031314;28;20069;-64
2022/03/10 01:27:35;;;;;;;22.52;13.07;;;0.70;99.90;;;;;;5014402;28;20134;-64
2022/03/10 01:30:01;;;;;;;18.85;13.32;;;0.60;99.90;;;;;;5030840;28;20053;-64
2022/03/10 01:32:27;;;;;;;19.88;12.88;;;0.60;99.90;;;;;;5014516;28;20434;-63
2022/03/10 01:34:53;;;;;;;21.83;13.13;;;0.50;99.90;;;;;;5031243;28;20072;-63
2022/03/10 01:37:19;;;;;;;18.13;12.98;;;0.50;99.90;;;;;;5015469;28;20046;-63
2022/03/10 01:39:45;;;;;;;20.25;12.88;;;0.50;99.90;;;;;;5014511;28;20544;-64
2022/03/10 01:42:11;;;;;;;22.10;13.50;;;0.40;99.90;;;;;;5013806;28;20058;-63
2022/03/10 01:44:38;;;;;;;20.90;13.27;;;0.40;99.90;;;;;;5015078;28;20343;-64
2022/03/10 01:47:05;;;;;;;21.23;13.90;;;0.40;99.90;;;;;;5027246;28;20077;-64
2022/03/10 01:49:35;;;;;;;18.67;12.65;;;0.40;99.90;;;;;;5035470;28;20119;-62
2022/03/10 01:52:02;;;;;;;23.40;14.35;;;0.30;99.90;;;;;;5050313;28;20054;-64
2022/03/10 01:54:27;;;;;;;18.80;13.20;;;0.30;99.90;;;;;;5051029;28;20489;-65
2022/03/10 01:56:53;;;;;;;27.58;14.82;;;0.30;99.90;;;;;;5029535;28;20093;-66
2022/03/10 01:59:19;;;;;;;21.45;14.05;;;0.20;99.90;;;;;;5013507;28;20054;-64
2022/03/10 02:01:45;;;;;;;22.30;13.00;;;0.20;99.90;;;;;;5014037;28;20050;-64
2022/03/10 02:04:11;;;;;;;21.27;13.25;;;0.20;99.90;;;;;;5013927;28;20065;-64
2022/03/10 02:06:37;;;;;;;20.25;12.77;;;0.30;99.90;;;;;;5039379;28;20049;-64
2022/03/10 02:11:48;;;;;;;23.73;13.43;;;0.20;99.90;;;;;;5018087;28;20057;-65
2022/03/10 02:19:59;;;;;;;21.23;13.75;;;0.20;99.90;;;;;;5028594;28;20053;-65
2022/03/10 02:22:26;;;;;;;20.08;13.57;;;0.20;99.90;;;;;;5016414;28;20451;-63
2022/03/10 02:24:53;;;;;;;21.35;13.82;;;0.20;99.90;;;;;;5049924;28;20061;-64
2022/03/10 02:27:27;;;;;;;20.33;13.77;;;0.20;99.90;;;;;;5049447;28;20053;-65
2022/03/10 02:30:01;;;;;;;21.60;14.07;;;0.20;99.90;;;;;;5049402;28;20054;-64
2022/03/10 02:32:27;;;;;;;23.40;13.40;;;0.10;99.90;;;;;;5049843;28;20132;-65
2022/03/10 02:34:52;;;;;;;18.83;13.18;;;0.10;99.90;;;;;;5033369;28;20180;-63
2022/03/10 02:37:18;;;;;;;20.83;13.38;;;0.20;99.90;;;;;;5043696;28;20049;-63
2022/03/10 02:39:45;;;;;;;21.73;14.10;;;0.20;99.90;;;;;;5049667;28;20056;-64
2022/03/10 02:42:12;;;;;;;22.80;13.20;;;0.20;99.90;;;;;;5041410;28;20410;-65
2022/03/10 02:44:47;;;;;;;23.33;13.73;;;0.20;99.90;;;;;;5028531;28;20047;-66
2022/03/10 02:47:13;;;;;;;22.05;14.48;;;0.20;99.90;;;;;;5046659;28;20054;-65
2022/03/10 02:49:40;;;;;;;22.73;14.63;;;0.10;99.90;;;;;;4996761;28;20053;-63
2022/03/10 02:52:06;;;;;;;23.05;14.05;;;0.10;99.90;;;;;;5013080;28;20057;-64
2022/03/10 02:54:32;;;;;;;22.92;14.32;;;0.10;99.90;;;;;;5033863;28;20128;-64
2022/03/10 02:56:58;;;;;;;20.65;13.82;;;0.10;99.90;;;;;;5042682;28;20113;-63
2022/03/10 02:59:24;;;;;;;23.08;13.80;;;0.00;99.90;;;;;;5013984;28;20502;-64
2022/03/10 03:01:50;;;;;;;22.95;13.50;;;0.00;99.90;;;;;;5013697;28;20145;-63
2022/03/10 03:04:16;;;;;;;23.58;14.00;;;0.00;99.90;;;;;;5016250;28;20449;-64
2022/03/10 03:06:42;;;;;;;22.13;13.80;;;0.00;99.90;;;;;;5029237;28;20057;-64
2022/03/10 03:09:07;;;;;;;22.45;14.00;;;0.00;99.90;;;;;;5012635;28;20108;-64
2022/03/10 03:11:33;;;;;;;20.88;13.48;;;0.00;99.90;;;;;;5028977;28;20050;-64
2022/03/10 03:13:59;;;;;;;23.92;14.02;;;0.00;99.90;;;;;;5012854;28;20054;-63
2022/03/10 03:16:25;;;;;;;20.45;13.35;;;0.00;99.90;;;;;;5012616;28;20049;-65
2022/03/10 03:18:52;;;;;;;20.63;13.15;;;0.00;99.90;;;;;;5012377;28;20061;-64
2022/03/10 03:21:18;;;;;;;20.85;13.77;;;0.00;99.90;;;;;;5013809;28;20081;-65
2022/03/10 03:23:44;;;;;;;19.27;13.05;;;0.10;99.90;;;;;;5014081;28;20490;-64
2022/03/10 03:26:10;;;;;;;20.88;13.70;;;0.10;99.90;;;;;;5012844;28;20099;-63
2022/03/10 03:28:35;;;;;;;20.50;13.07;;;0.10;99.90;;;;;;5028149;28;20053;-63
2022/03/10 03:31:01;;;;;;;19.08;13.07;;;0.10;99.90;;;;;;5012665;28;20391;-65
2022/03/10 03:33:27;;;;;;;20.63;13.43;;;0.10;99.90;;;;;;5012086;28;20420;-63
2022/03/10 03:35:52;;;;;;;21.95;13.48;;;0.20;99.90;;;;;;5012071;28;20046;-65
2022/03/10 03:38:18;;;;;;;18.45;13.02;;;0.10;99.90;;;;;;5012282;28;20049;-64
2022/03/10 03:40:43;;;;;;;19.65;12.45;;;0.20;99.90;;;;;;5020889;28;20052;-64
2022/03/10 03:43:09;;;;;;;17.70;11.43;;;0.20;99.90;;;;;;5046609;28;20407;-66
2022/03/10 03:45:34;;;;;;;21.52;12.55;;;0.10;99.90;;;;;;5040141;28;20475;-62
2022/03/10 03:48:00;;;;;;;19.67;12.85;;;0.10;99.90;;;;;;5028033;28;20053;-66
2022/03/10 03:50:26;;;;;;;19.58;11.57;;;0.20;99.90;;;;;;5011674;28;20049;-64
2022/03/10 03:52:51;;;;;;;18.67;12.60;;;0.20;99.90;;;;;;5011780;28;20056;-63
2022/03/10 03:55:17;;;;;;;19.80;12.13;;;0.20;99.90;;;;;;5012060;28;20128;-64
2022/03/10 03:57:42;;;;;;;17.63;12.15;;;0.20;99.90;;;;;;5011546;28;20444;-64
2022/03/10 04:00:10;;;;;;;18.98;12.85;;;0.20;99.90;;;;;;5011662;28;20566;-66
2022/03/10 04:02:36;;;;;;;21.30;12.68;;;0.20;99.90;;;;;;5024544;28;20050;-63
2022/03/10 04:05:03;;;;;;;16.45;11.68;;;0.20;99.90;;;;;;5015107;28;20434;-64
2022/03/10 04:07:28;;;;;;;18.42;12.30;;;0.20;99.90;;;;;;5011919;28;20050;-64
2022/03/10 04:09:54;;;;;;;18.10;12.00;;;0.20;99.90;;;;;;5011458;28;20505;-64
2022/03/10 04:12:19;;;;;;;20.10;12.05;;;0.20;99.90;;;;;;5011855;28;20128;-63
2022/03/10 04:14:45;;;;;;;18.40;12.43;;;0.20;99.90;;;;;;5012002;28;20054;-64
2022/03/10 04:17:10;;;;;;;19.38;11.77;;;0.20;99.90;;;;;;5012454;28;20433;-63
2022/03/10 04:19:36;;;;;;;19.40;12.88;;;0.20;99.90;;;;;;5047772;28;20374;-64
2022/03/10 04:22:03;;;;;;;17.05;11.95;;;0.20;99.90;;;;;;5047525;28;20114;-64
2022/03/10 04:24:29;;;;;;;18.65;11.95;;;0.20;99.90;;;;;;5047789;28;20076;-65
2022/03/10 04:26:55;;;;;;;18.35;11.77;;;0.10;99.90;;;;;;5047200;28;20482;-64
2022/03/10 04:29:20;;;;;;;19.20;12.20;;;0.10;99.90;;;;;;5028363;28;20048;-63
2022/03/10 04:31:46;;;;;;;19.38;12.30;;;0.10;99.90;;;;;;5021543;28;20073;-63
2022/03/10 04:34:11;;;;;;;21.15;11.95;;;0.10;99.90;;;;;;5047638;28;20104;-64
2022/03/10 04:36:37;;;;;;;18.88;12.20;;;0.00;99.90;;;;;;5028083;28;20485;-63
2022/03/10 04:39:04;;;;;;;21.10;11.82;;;0.10;99.90;;;;;;5032753;28;20106;-65
2022/03/10 04:41:30;;;;;;;17.15;11.45;;;0.00;99.90;;;;;;5031843;28;20558;-65
2022/03/10 04:43:56;;;;;;;15.63;10.98;;;0.00;99.90;;;;;;5047938;28;20065;-62
2022/03/10 04:46:23;;;;;;;17.77;11.55;;;0.00;99.90;;;;;;5048359;28;20056;-64
2022/03/10 04:48:49;;;;;;;15.93;11.57;;;0.00;99.90;;;;;;5031184;28;20058;-63
2022/03/10 04:51:15;;;;;;;17.60;11.57;;;0.00;99.90;;;;;;5013921;28;20056;-63
2022/03/10 04:53:40;;;;;;;17.80;11.52;;;0.00;99.90;;;;;;5036488;28;20485;-64
2022/03/10 04:56:06;;;;;;;16.52;11.30;;;0.00;99.90;;;;;;5051557;28;20053;-65
2022/03/10 04:58:32;;;;;;;17.80;12.25;;;0.00;99.90;;;;;;5051050;28;20125;-64
2022/03/10 05:00:58;;;;;;;16.02;11.35;;;0.00;99.90;;;;;;5052022;28;20057;-64
2022/03/10 05:03:23;;;;;;;19.63;12.48;;;0.00;99.90;;;;;;5051142;28;20116;-63
2022/03/10 05:05:49;;;;;;;17.90;11.75;;;0.10;99.90;;;;;;5051980;28;20421;-64
2022/03/10 05:08:14;;;;;;;17.90;12.20;;;0.00;99.90;;;;;;5050154;28;20125;-63
2022/03/10 05:10:40;;;;;;;18.58;11.00;;;0.00;99.90;;;;;;5036254;28;20128;-63
2022/03/10 05:13:05;;;;;;;19.90;12.55;;;0.00;99.90;;;;;;5050856;28;20064;-64
2022/03/10 05:15:31;;;;;;;20.38;12.75;;;0.00;99.90;;;;;;5052112;28;20049;-66
2022/03/10 05:18:02;;;;;;;18.52;11.68;;;-0.10;99.90;;;;;;5051231;28;20107;-64
2022/03/10 05:20:29;;;;;;;19.05;11.88;;;-0.10;99.90;;;;;;5051309;28;20057;-64
2022/03/10 05:22:56;;;;;;;19.27;11.88;;;-0.10;99.90;;;;;;5035714;28;20049;-64
2022/03/10 05:25:24;;;;;;;22.20;12.13;;;-0.20;99.90;;;;;;5033676;28;20080;-65
2022/03/10 05:27:51;;;;;;;18.90;12.38;;;-0.20;99.90;;;;;;5015495;28;20054;-64
2022/03/10 05:30:18;;;;;;;17.83;11.63;;;-0.20;99.90;;;;;;5016139;28;20474;-63
2022/03/10 05:32:44;;;;;;;19.30;12.55;;;-0.20;99.90;;;;;;5028575;28;20045;-63
2022/03/10 05:35:14;;;;;;;18.15;11.77;;;-0.20;99.90;;;;;;5032208;28;20060;-64
2022/03/10 05:37:40;;;;;;;19.92;12.38;;;-0.20;99.90;;;;;;5019094;28;20045;-64
2022/03/10 05:40:08;;;;;;;18.40;12.15;;;-0.20;99.90;;;;;;5014529;28;20058;-64
2022/03/10 05:42:36;;;;;;;19.70;12.07;;;-0.20;99.90;;;;;;5025773;28;20049;-63
2022/03/10 05:45:02;;;;;;;16.67;11.82;;;-0.20;99.90;;;;;;5037073;28;20045;-63
2022/03/10 05:47:28;;;;;;;20.35;13.27;;;-0.20;99.90;;;;;;5040363;28;20064;-63
2022/03/10 05:49:54;;;;;;;16.83;12.13;;;-0.30;99.90;;;;;;5033118;28;20124;-63
2022/03/10 05:52:19;;;;;;;20.58;13.38;;;-0.30;99.90;;;;;;5033414;28;20486;-65
2022/03/10 05:54:45;;;;;;;22.42;13.02;;;-0.30;99.90;;;;;;5033412;28;20128;-63
2022/03/10 05:57:10;;;;;;;21.85;13.50;;;-0.30;99.90;;;;;;5032676;28;20053;-63
2022/03/10 05:59:36;;;;;;;20.70;12.55;;;-0.30;99.90;;;;;;5029588;28;20046;-64
2022/03/10 06:02:01;;;;;;;24.75;13.40;;;-0.40;99.90;;;;;;5013858;28;20613;-63
2022/03/10 06:04:27;;;;;;;19.00;12.85;;;-0.40;99.90;;;;;;5017045;28;20107;-64
2022/03/10 06:06:52;;;;;;;19.50;13.07;;;-0.40;99.90;;;;;;5050321;28;20045;-63
2022/03/10 06:09:18;;;;;;;21.95;12.98;;;-0.40;99.90;;;;;;5050027;28;20049;-64
2022/03/10 06:11:43;;;;;;;20.48;13.05;;;-0.40;99.90;;;;;;5049923;28;20130;-63
2022/03/10 06:14:11;;;;;;;26.50;13.57;;;-0.40;99.90;;;;;;5034899;28;20118;-64
2022/03/10 06:16:37;;;;;;;20.17;12.95;;;-0.40;99.90;;;;;;5045791;28;20077;-64
2022/03/10 06:19:02;;;;;;;19.40;12.48;;;-0.30;99.90;;;;;;5014243;28;20069;-65
2022/03/10 06:21:28;;;;;;;19.70;12.48;;;-0.30;99.90;;;;;;5027408;28;20136;-66
2022/03/10 06:23:54;;;;;;;18.45;12.32;;;-0.30;99.90;;;;;;5038363;28;20060;-65
2022/03/10 06:26:20;;;;;;;19.50;13.02;;;-0.30;99.90;;;;;;5031117;28;20119;-66
2022/03/10 06:28:47;;;;;;;20.02;12.82;;;-0.20;99.90;;;;;;5038628;28;20059;-65
2022/03/10 06:31:13;;;;;;;27.10;13.15;;;-0.20;99.90;;;;;;5037393;28;20049;-64
2022/03/10 06:33:38;;;;;;;21.75;13.63;;;-0.10;99.90;;;;;;5018592;28;20064;-63
2022/03/10 06:36:05;;;;;;;20.80;13.68;;;-0.10;99.90;;;;;;5039218;28;20147;-64
2022/03/10 06:38:32;;;;;;;21.38;13.15;;;0.00;99.90;;;;;;5017231;28;20053;-64
2022/03/10 06:40:59;;;;;;;25.02;13.20;;;0.00;99.90;;;;;;5040543;28;20132;-65
2022/03/10 06:43:24;;;;;;;28.75;14.52;;;0.00;99.90;;;;;;5012576;28;20054;-65
2022/03/10 06:45:50;;;;;;;18.70;12.60;;;0.10;99.90;;;;;;5042740;28;20505;-64
2022/03/10 06:48:16;;;;;;;21.35;13.25;;;0.10;99.90;;;;;;5027884;28;20056;-64
2022/03/10 06:50:42;;;;;;;22.35;14.10;;;0.20;99.90;;;;;;4996896;28;20046;-63
2022/03/10 06:53:07;;;;;;;18.30;12.90;;;0.30;99.90;;;;;;5029187;28;20398;-62
2022/03/10 06:55:33;;;;;;;22.88;14.10;;;0.30;99.90;;;;;;5040431;28;20042;-64
2022/03/10 06:57:58;;;;;;;21.58;12.90;;;0.40;99.90;;;;;;5040798;28;20045;-62
2022/03/10 07:00:24;;;;;;;18.08;13.13;;;0.50;99.90;;;;;;5037033;28;20498;-62
2022/03/10 07:02:52;;;;;;;20.42;13.07;;;0.60;99.90;;;;;;5012997;28;20521;-63
2022/03/10 07:05:18;;;;;;;22.92;13.85;;;0.70;99.90;;;;;;5012631;28;20058;-63
2022/03/10 07:07:44;;;;;;;20.42;13.15;;;0.80;99.90;;;;;;5013036;28;20057;-64
2022/03/10 07:10:10;;;;;;;21.67;13.20;;;0.90;99.90;;;;;;5023131;28;20057;-64
2022/03/10 07:12:39;;;;;;;19.85;12.18;;;1.00;99.90;;;;;;5012236;28;20050;-63
2022/03/10 07:15:06;;;;;;;19.83;13.75;;;1.10;99.90;;;;;;5028951;28;20410;-63
2022/03/10 07:17:32;;;;;;;22.27;13.18;;;1.20;99.90;;;;;;5030339;28;20045;-63
2022/03/10 07:19:57;;;;;;;21.38;12.98;;;1.40;99.90;;;;;;5030664;28;20076;-63
2022/03/10 07:22:23;;;;;;;21.45;12.68;;;1.60;99.90;;;;;;5048394;28;20138;-65
2022/03/10 07:24:49;;;;;;;22.52;13.05;;;1.60;99.90;;;;;;5032443;28;20085;-63
2022/03/10 07:27:14;;;;;;;20.25;13.38;;;1.70;99.90;;;;;;5030600;28;20060;-63
2022/03/10 07:29:40;;;;;;;18.92;12.63;;;1.80;99.90;;;;;;5042877;28;20081;-64
2022/03/10 07:32:06;;;;;;;20.67;14.32;;;1.90;99.90;;;;;;4995676;28;20116;-64
2022/03/10 07:34:32;;;;;;;19.75;13.02;;;2.00;99.90;;;;;;5013139;28;20375;-64
2022/03/10 07:36:57;;;;;;;25.67;12.90;;;2.10;99.90;;;;;;5010888;28;20059;-64
2022/03/10 07:39:23;;;;;;;20.00;13.00;;;2.30;99.90;;;;;;5032733;28;20054;-64
2022/03/10 07:41:49;;;;;;;22.40;13.55;;;2.40;99.90;;;;;;5031535;28;20451;-63
2022/03/10 07:44:14;;;;;;;20.13;12.45;;;2.50;99.90;;;;;;5029886;28;20085;-64
2022/03/10 07:46:41;;;;;;;18.83;12.02;;;2.60;99.90;;;;;;5012077;28;20057;-64
2022/03/10 07:49:08;;;;;;;19.92;13.15;;;2.80;99.90;;;;;;5022059;28;20091;-64
2022/03/10 07:51:34;;;;;;;20.58;12.95;;;2.90;99.90;;;;;;5032390;28;20049;-66
2022/03/10 07:54:00;;;;;;;19.48;12.38;;;3.10;99.90;;;;;;5048245;28;20112;-64
2022/03/10 07:56:25;;;;;;;17.60;12.15;;;3.20;99.90;;;;;;5047400;28;20053;-64
2022/03/10 07:58:51;;;;;;;24.90;12.55;;;3.30;99.90;;;;;;5031596;28;20076;-63
2022/03/10 08:01:17;;;;;;;20.80;12.50;;;3.50;99.90;;;;;;5031782;28;20132;-64
2022/03/10 08:03:42;;;;;;;20.30;12.23;;;3.70;99.90;;;;;;5031304;28;20049;-63
2022/03/10 08:06:08;;;;;;;19.65;11.82;;;3.90;99.90;;;;;;5032083;28;20051;-63
2022/03/10 08:08:33;;;;;;;18.83;12.88;;;4.00;99.90;;;;;;5032055;28;20057;-63
2022/03/10 08:10:59;;;;;;;20.65;13.15;;;4.10;99.90;;;;;;5030923;28;20054;-63
2022/03/10 08:13:26;;;;;;;17.35;11.88;;;4.40;99.90;;;;;;5025759;28;20061;-62
2022/03/10 08:15:53;;;;;;;19.73;11.68;;;4.60;99.90;;;;;;5017814;28;20355;-63
2022/03/10 08:18:19;;;;;;;20.60;12.07;;;4.70;99.90;;;;;;5008908;28;20449;-63
2022/03/10 08:20:44;;;;;;;17.20;11.63;;;4.80;99.90;;;;;;5011186;28;20137;-65
2022/03/10 08:23:10;;;;;;;16.23;11.68;;;5.00;99.90;;;;;;5011408;28;20053;-63
2022/03/10 08:25:39;;;;;;;22.15;12.85;;;5.20;99.90;;;;;;5011639;28;20046;-63
2022/03/10 08:28:06;;;;;;;24.02;13.60;;;5.20;99.90;;;;;;5033609;28;20064;-64
2022/03/10 08:30:31;;;;;;;19.92;12.73;;;5.40;99.90;;;;;;5035647;28;20053;-63
2022/03/10 08:32:57;;;;;;;20.75;12.95;;;5.60;99.90;;;;;;5035584;28;20056;-64
2022/03/10 08:35:23;;;;;;;18.77;12.43;;;5.70;99.90;;;;;;5018754;28;20053;-64
2022/03/10 08:37:49;;;;;;;21.13;12.45;;;5.80;99.90;;;;;;5035242;28;20079;-64
2022/03/10 08:40:17;;;;;;;20.95;12.77;;;6.00;99.90;;;;;;5035621;28;20397;-64
2022/03/10 08:42:47;;;;;;;17.27;12.20;;;6.10;99.90;;;;;;5034212;28;20057;-64
2022/03/10 08:45:13;;;;;;;17.75;12.02;;;6.20;99.90;;;;;;5032786;28;20481;-64
2022/03/10 08:47:39;;;;;;;17.85;13.55;;;6.30;99.90;;;;;;5035829;28;20103;-64
2022/03/10 08:50:06;;;;;;;16.52;11.82;;;6.50;99.90;;;;;;5034736;28;20061;-65
2022/03/10 08:52:32;;;;;;;18.33;12.52;;;6.60;99.90;;;;;;5036354;28;20049;-63
2022/03/10 08:54:57;;;;;;;19.02;13.27;;;6.70;99.90;;;;;;5035492;28;20049;-65
2022/03/10 08:57:23;;;;;;;18.38;13.82;;;6.80;99.90;;;;;;5034101;28;20041;-63
2022/03/10 08:59:48;;;;;;;17.83;12.90;;;7.00;99.90;;;;;;5051442;28;20065;-66
2022/03/10 09:02:15;;;;;;;20.02;12.98;;;7.10;99.90;;;;;;5042363;28;20617;-65
2022/03/10 09:04:41;;;;;;;19.17;13.15;;;7.30;99.90;;;;;;5027727;28;20045;-65
2022/03/10 09:07:06;;;;;;;15.40;12.77;;;7.40;99.90;;;;;;5024130;28;20409;-65
2022/03/10 09:09:32;;;;;;;19.05;13.35;;;7.50;99.60;;;;;;5050607;28;20049;-64
2022/03/10 09:11:57;;;;;;;16.90;12.73;;;7.70;85.80;;;;;;5046465;28;20105;-66
2022/03/10 09:14:23;;;;;;;19.00;13.98;;;7.80;92.00;;;;;;5028901;28;20046;-65
2022/03/10 09:16:51;;;;;;;16.38;12.43;;;8.00;90.30;;;;;;5029054;28;20045;-65
2022/03/10 09:19:17;;;;;;;18.52;13.25;;;8.10;78.80;;;;;;5033225;28;20056;-64
2022/03/10 09:21:42;;;;;;;16.95;12.82;;;8.20;84.80;;;;;;5032927;28;20049;-65
2022/03/10 09:24:08;;;;;;;17.70;13.50;;;8.30;84.40;;;;;;5033452;28;20056;-66
2022/03/10 09:26:34;;;;;;;18.33;13.02;;;8.40;80.60;;;;;;5033627;28;20124;-67
2022/03/10 09:29:00;;;;;;;18.42;13.00;;;8.50;83.20;;;;;;5033252;28;20053;-65
2022/03/10 09:31:26;;;;;;;20.10;13.05;;;8.70;80.80;;;;;;5032005;28;20128;-65
2022/03/10 09:33:51;;;;;;;19.55;12.68;;;8.80;80.20;;;;;;5033774;28;20385;-64
2022/03/10 09:36:17;;;;;;;18.20;12.80;;;8.90;76.40;;;;;;5031187;28;20485;-64
2022/03/10 09:38:43;;;;;;;16.83;13.38;;;9.00;75.20;;;;;;5032873;28;20045;-65
2022/03/10 09:41:09;;;;;;;20.20;14.35;;;9.00;75.40;;;;;;5033702;28;20053;-64
2022/03/10 09:43:36;;;;;;;17.52;13.50;;;9.10;72.80;;;;;;5033885;28;20139;-63
2022/03/10 09:46:03;;;;;;;18.25;13.35;;;9.20;73.20;;;;;;5034250;28;20104;-63
2022/03/10 09:48:30;;;;;;;16.77;12.75;;;9.30;73.60;;;;;;5027226;28;20085;-65
2022/03/10 09:50:56;;;;;;;20.35;12.85;;;9.40;71.60;;;;;;5015749;28;20065;-65
2022/03/10 09:53:22;;;;;;;17.45;13.23;;;9.50;70.20;;;;;;5018608;28;20053;-64
2022/03/10 09:55:48;;;;;;;16.77;12.88;;;9.60;69.20;;;;;;5038949;28;20041;-65
2022/03/10 09:58:13;;;;;;;18.25;12.25;;;9.70;68.80;;;;;;5034296;28;20059;-65
2022/03/10 10:00:39;;;;;;;17.58;12.40;;;10.00;83.40;;;;;;5033576;28;20068;-63
2022/03/10 10:03:05;;;;;;;18.67;13.00;;;9.90;82.80;;;;;;5034307;28;20095;-65
2022/03/10 10:05:32;;;;;;;16.63;12.02;;;9.70;78.50;;;;;;5033770;28;20061;-64
2022/03/10 10:08:01;;;;;;;18.17;13.07;;;10.20;77.60;;;;;;5033462;28;20050;-65
2022/03/10 10:10:28;;;;;;;16.70;13.32;;;10.30;75.60;;;;;;5033480;28;20140;-65
2022/03/10 10:12:54;;;;;;;16.48;13.07;;;10.30;74.10;;;;;;5032906;28;20117;-64
2022/03/10 10:15:19;;;;;;;16.10;12.20;;;10.60;74.50;;;;;;5033086;28;20121;-64
2022/03/10 10:17:53;;;;;;;16.17;12.10;;;10.60;75.90;;;;;;5033328;28;20498;-65
2022/03/10 10:20:19;;;;;;;19.92;13.32;;;10.60;76.10;;;;;;5034907;28;20068;-64
2022/03/10 10:22:45;;;;;;;19.08;13.20;;;10.90;75.50;;;;;;5033491;28;20042;-64
2022/03/10 10:25:10;;;;;;;22.20;13.60;;;11.00;73.90;;;;;;5035248;28;20045;-63
2022/03/10 10:27:38;;;;;;;18.33;13.43;;;10.90;75.50;;;;;;5049218;28;20052;-64
2022/03/10 10:30:07;;;;;;;17.58;13.45;;;11.20;76.20;;;;;;5032430;28;20049;-65
2022/03/10 10:32:44;;;;;;;18.33;13.70;;;11.30;77.40;;;;;;5033789;28;20128;-66
2022/03/10 10:35:20;;;;;;;16.67;13.32;;;11.30;75.60;;;;;;5032786;28;20061;-64
2022/03/10 10:37:50;;;;;;;18.17;13.35;;;11.40;77.70;;;;;;5032536;28;20052;-64
2022/03/10 10:40:26;;;;;;;17.35;13.32;;;11.40;78.30;;;;;;5030524;28;20374;-63
2022/03/10 10:42:53;;;;;;;18.33;13.20;;;11.50;78.20;;;;;;5029115;28;20053;-64
2022/03/10 10:45:26;;;;;;;17.40;12.55;;;12.10;78.80;;;;;;5049042;28;20049;-65
2022/03/10 10:48:00;;;;;;;17.25;13.23;;;11.40;79.00;;;;;;5048565;28;20103;-64
2022/03/10 10:50:28;;;;;;;17.63;13.43;;;11.60;78.80;;;;;;5032066;28;20402;-64
2022/03/10 10:52:54;;;;;;;20.23;14.00;;;11.50;59.00;;;;;;5032747;28;20041;-65
2022/03/10 10:55:20;;;;;;;19.50;15.05;;;11.70;59.60;;;;;;5032234;28;20057;-66
2022/03/10 10:57:45;;;;;;;20.05;14.15;;;11.80;58.90;;;;;;5031898;28;20532;-65
2022/03/10 11:00:13;;;;;;;17.88;13.82;;;11.90;59.00;;;;;;5048778;28;20045;-65
2022/03/10 11:02:43;;;;;;;17.95;13.70;;;11.90;58.60;;;;;;5029799;28;20053;-63
2022/03/10 11:05:11;;;;;;;17.10;14.02;;;12.10;59.30;;;;;;5033854;28;20049;-62
2022/03/10 11:07:39;;;;;;;16.75;13.40;;;12.20;58.00;;;;;;5032006;28;20041;-65
2022/03/10 11:10:07;;;;;;;19.05;14.60;;;12.30;58.50;;;;;;5032212;28;20084;-64
2022/03/10 11:12:34;;;;;;;19.27;14.15;;;12.30;58.60;;;;;;5026819;28;20063;-65
2022/03/10 11:15:00;;;;;;;21.15;14.02;;;12.40;58.00;;;;;;5031855;28;20042;-64
2022/03/10 11:17:27;;;;;;;18.92;13.82;;;12.50;58.10;;;;;;5033134;28;20079;-64
2022/03/10 11:19:56;;;;;;;18.92;13.95;;;12.50;57.80;;;;;;5045717;28;20136;-65
2022/03/10 11:22:33;;;;;;;16.77;13.50;;;12.70;57.80;;;;;;5028630;28;20055;-64
2022/03/10 11:25:15;;;;;;;18.73;14.32;;;12.70;57.50;;;;;;5030003;28;20049;-65
2022/03/10 11:27:49;;;;;;;18.73;13.93;;;12.70;56.10;;;;;;5029704;28;20057;-64
2022/03/10 11:30:15;;;;;;;18.25;13.68;;;12.80;56.50;;;;;;5029339;28;20481;-66
2022/03/10 11:32:41;;;;;;;18.55;13.95;;;12.90;56.10;;;;;;5030344;28;20077;-64
2022/03/10 11:35:14;;;;;;;19.95;14.18;;;12.90;56.40;;;;;;5030489;28;20104;-65
2022/03/10 11:37:42;;;;;;;19.58;14.23;;;12.90;56.40;;;;;;5029940;28;20120;-65
2022/03/10 11:40:20;;;;;;;21.15;14.60;;;13.00;55.80;;;;;;5030518;28;20057;-65
2022/03/10 11:42:46;;;;;;;19.15;14.18;;;13.10;55.10;;;;;;5032259;28;20038;-64
2022/03/10 11:45:15;;;;;;;19.48;14.40;;;13.20;55.40;;;;;;5032274;28;20092;-65
2022/03/10 11:47:41;;;;;;;19.63;14.45;;;13.30;55.30;;;;;;5029717;28;20080;-66
2022/03/10 11:50:22;;;;;;;20.70;13.93;;;13.40;54.60;;;;;;5030335;28;20049;-64
2022/03/10 11:53:04;;;;;;;20.10;14.88;;;13.50;53.40;;;;;;5029435;28;20097;-65
2022/03/10 11:55:40;;;;;;;20.17;15.07;;;13.50;52.90;;;;;;5012097;28;20383;-64
2022/03/10 11:58:06;;;;;;;22.85;14.52;;;13.50;52.50;;;;;;5021273;28;20334;-65
2022/03/10 12:00:40;;;;;;;22.63;15.70;;;13.60;52.90;;;;;;5030275;28;20132;-64
2022/03/10 12:03:07;;;;;;;20.85;15.27;;;13.70;51.40;;;;;;5045520;28;20488;-67
2022/03/10 12:05:52;;;;;;;20.15;14.50;;;13.70;52.00;;;;;;5032666;28;20464;-65
2022/03/10 12:08:19;;;;;;;20.05;14.48;;;13.80;51.50;;;;;;5044818;28;20046;-65
2022/03/10 12:10:47;;;;;;;22.10;14.48;;;13.90;52.20;;;;;;5013118;28;20081;-65
2022/03/10 12:13:35;;;;;;;19.70;14.50;;;13.90;51.80;;;;;;5012590;28;20128;-65
2022/03/10 12:16:07;;;;;;;22.23;15.77;;;14.00;51.70;;;;;;5025538;28;20054;-64
2022/03/10 12:18:39;;;;;;;20.17;15.18;;;14.10;51.90;;;;;;5031514;28;20450;-66
2022/03/10 12:21:31;;;;;;;19.58;14.48;;;14.10;50.20;;;;;;5028657;28;20056;-65
2022/03/10 12:23:58;;;;;;;21.60;15.18;;;14.20;51.10;;;;;;5010690;28;20133;-65
2022/03/10 12:26:26;;;;;;;20.30;15.35;;;14.30;51.00;;;;;;5010961;28;20096;-65
2022/03/10 12:28:55;;;;;;;20.05;15.45;;;14.30;50.20;;;;;;5011468;28;20488;-64
2022/03/10 12:31:23;;;;;;;20.35;14.43;;;14.40;50.20;;;;;;4997036;28;20137;-65
2022/03/10 12:33:54;;;;;;;19.35;14.80;;;14.30;50.70;;;;;;5031168;28;20081;-64
2022/03/10 12:36:49;;;;;;;20.65;15.32;;;14.40;50.40;;;;;;5032451;28;20401;-67
2022/03/10 12:39:23;;;;;;;20.80;15.90;;;14.40;49.80;;;;;;5027788;28;20061;-64
2022/03/10 12:41:54;;;;;;;20.63;15.02;;;14.50;49.40;;;;;;5028345;28;20060;-64